createdAt,value
2018-03-23T00:01:40.541Z,5.00
2018-03-23T00:04:08.165Z,5.00
2018-03-23T00:06:35.790Z,5.00
2018-03-23T00:09:03.427Z,5.00
2018-03-23T00:11:31.049Z,5.00
2018-03-23T00:13:58.654Z,5.00
2018-03-23T00:16:26.303Z,5.00
2018-03-23T00:18:53.979Z,5.00
2018-03-23T00:21:21.646Z,5.00
2018-03-23T00:23:49.276Z,5.00
2018-03-23T00:26:16.884Z,5.00
2018-03-23T00:28:45.327Z,5.00
2018-03-23T00:31:12.951Z,5.00
2018-03-23T00:33:40.560Z,5.00
2018-03-23T00:36:08.212Z,5.00
2018-03-23T00:38:36.004Z,5.00
2018-03-23T00:41:04.403Z,4.90
2018-03-23T00:43:32.799Z,4.70
2018-03-23T00:46:00.502Z,4.70
2018-03-23T00:48:29.998Z,4.40
2018-03-23T00:50:58.226Z,4.30
2018-03-23T00:53:26.443Z,4.40
2018-03-23T00:55:54.103Z,4.30
2018-03-23T00:58:21.789Z,4.30
2018-03-23T01:00:49.408Z,4.30
2018-03-23T01:03:16.997Z,4.20
2018-03-23T01:05:44.675Z,4.20
2018-03-23T01:08:12.308Z,4.20
2018-03-23T01:10:39.947Z,4.10
2018-03-23T01:13:07.652Z,4.00
2018-03-23T01:15:35.298Z,3.90
2018-03-23T01:18:02.957Z,3.80
2018-03-23T01:20:30.713Z,3.80
2018-03-23T01:22:58.367Z,3.80
2018-03-23T01:25:26.048Z,3.70
2018-03-23T01:27:53.772Z,3.70
2018-03-23T01:30:21.409Z,3.70
2018-03-23T01:32:49.868Z,3.70
2018-03-23T01:35:17.533Z,3.70
2018-03-23T01:37:45.936Z,3.70
2018-03-23T01:40:13.585Z,3.60
2018-03-23T01:42:41.953Z,3.60
2018-03-23T01:45:10.322Z,3.60
2018-03-23T01:47:38.259Z,3.60
2018-03-23T01:50:05.951Z,3.60
2018-03-23T01:52:33.554Z,3.60
2018-03-23T01:55:01.222Z,3.60
2018-03-23T01:57:28.897Z,3.60
2018-03-23T01:59:57.126Z,3.60
2018-03-23T02:02:25.613Z,3.60
2018-03-23T02:04:53.974Z,3.60
2018-03-23T02:07:21.578Z,3.60
2018-03-23T02:09:49.203Z,3.60
2018-03-23T02:12:17.558Z,3.60
2018-03-23T02:14:45.147Z,3.60
2018-03-23T02:17:13.643Z,3.60
2018-03-23T02:19:41.250Z,3.50
2018-03-23T02:22:09.658Z,3.50
2018-03-23T02:24:38.590Z,3.50
2018-03-23T02:27:06.279Z,3.50
2018-03-23T02:29:43.244Z,3.60
2018-03-23T02:32:13.115Z,3.60
2018-03-23T02:34:40.738Z,3.60
2018-03-23T02:37:08.358Z,3.70
2018-03-23T02:39:35.959Z,3.70
2018-03-23T02:42:03.590Z,3.70
2018-03-23T02:44:31.195Z,3.70
2018-03-23T02:46:59.561Z,3.60
2018-03-23T02:49:27.182Z,3.60
2018-03-23T02:51:54.809Z,3.60
2018-03-23T02:54:23.162Z,3.80
2018-03-23T02:56:50.754Z,3.70
2018-03-23T02:59:18.399Z,3.80
2018-03-23T03:01:46.799Z,3.70
2018-03-23T03:04:14.394Z,3.70
2018-03-23T03:06:41.987Z,3.70
2018-03-23T03:09:10.386Z,3.70
2018-03-23T03:11:37.983Z,3.70
2018-03-23T03:14:05.582Z,3.60
2018-03-23T03:16:33.974Z,3.60
2018-03-23T03:19:02.354Z,3.50
2018-03-23T03:21:30.721Z,3.50
2018-03-23T03:23:59.328Z,3.50
2018-03-23T03:26:26.918Z,3.60
2018-03-23T03:28:54.519Z,3.60
2018-03-23T03:31:22.926Z,3.60
2018-03-23T03:33:51.521Z,3.60
2018-03-23T03:36:19.166Z,3.60
2018-03-23T03:38:46.797Z,3.60
2018-03-23T03:41:15.153Z,3.70
2018-03-23T03:43:42.767Z,3.70
2018-03-23T03:46:10.390Z,3.70
2018-03-23T03:48:37.986Z,3.60
2018-03-23T03:51:05.595Z,3.70
2018-03-23T03:53:33.231Z,3.70
2018-03-23T03:56:00.818Z,3.60
2018-03-23T03:58:28.455Z,3.50
2018-03-23T04:00:56.086Z,3.50
2018-03-23T04:03:24.292Z,3.60
2018-03-23T04:05:51.874Z,3.60
2018-03-23T04:08:20.268Z,3.60
2018-03-23T04:10:48.637Z,3.70
2018-03-23T04:13:16.242Z,3.60
2018-03-23T04:15:44.236Z,3.70
2018-03-23T04:18:11.850Z,3.60
2018-03-23T04:20:40.194Z,3.60
2018-03-23T04:23:08.628Z,3.60
2018-03-23T04:25:36.230Z,3.60
2018-03-23T04:28:03.813Z,3.60
2018-03-23T04:30:33.134Z,3.60
2018-03-23T04:33:00.752Z,3.60
2018-03-23T04:35:28.380Z,3.60
2018-03-23T04:37:55.982Z,3.60
2018-03-23T04:40:23.577Z,3.60
2018-03-23T04:42:51.670Z,3.60
2018-03-23T04:45:19.259Z,3.60
2018-03-23T04:47:46.842Z,3.60
2018-03-23T04:50:15.227Z,3.60
2018-03-23T04:52:43.857Z,3.60
2018-03-23T04:55:11.440Z,3.60
2018-03-23T04:57:39.076Z,3.70
2018-03-23T05:00:07.358Z,3.60
2018-03-23T05:02:34.942Z,3.60
2018-03-23T05:05:02.574Z,3.60
2018-03-23T05:07:30.158Z,3.70
2018-03-23T05:09:57.743Z,3.70
2018-03-23T05:12:26.151Z,3.70
2018-03-23T05:14:53.758Z,3.60
2018-03-23T05:17:21.352Z,3.60
2018-03-23T05:19:48.982Z,3.60
2018-03-23T05:22:16.576Z,3.70
2018-03-23T05:24:44.182Z,3.70
2018-03-23T05:27:12.706Z,3.60
2018-03-23T05:29:41.062Z,3.60
2018-03-23T05:32:08.649Z,3.60
2018-03-23T05:34:36.317Z,3.60
2018-03-23T05:37:03.918Z,3.60
2018-03-23T05:39:31.565Z,3.60
2018-03-23T05:41:59.174Z,3.60
2018-03-23T05:44:27.552Z,3.70
2018-03-23T05:46:55.937Z,3.70
2018-03-23T05:49:24.316Z,3.60
2018-03-23T05:51:52.847Z,3.60
2018-03-23T05:54:20.465Z,3.50
2018-03-23T05:56:48.834Z,3.40
2018-03-23T05:59:17.209Z,3.50
2018-03-23T06:01:45.593Z,3.50
2018-03-23T06:04:13.951Z,3.50
2018-03-23T06:06:41.545Z,3.50
2018-03-23T06:09:09.183Z,3.50
2018-03-23T06:11:37.542Z,3.50
2018-03-23T06:14:05.135Z,3.50
2018-03-23T06:16:32.993Z,3.50
2018-03-23T06:19:01.410Z,3.60
2018-03-23T06:21:29.006Z,3.60
2018-03-23T06:23:56.627Z,3.50
2018-03-23T06:26:24.258Z,3.50
2018-03-23T06:28:52.028Z,3.60
2018-03-23T06:31:19.618Z,3.60
2018-03-23T06:33:47.280Z,3.70
2018-03-23T06:36:14.901Z,3.70
2018-03-23T06:38:42.487Z,3.70
2018-03-23T06:41:10.102Z,3.70
2018-03-23T06:43:38.463Z,3.70
2018-03-23T06:46:06.087Z,3.70
2018-03-23T06:48:33.774Z,3.70
2018-03-23T06:51:01.396Z,3.80
2018-03-23T06:53:29.029Z,3.80
2018-03-23T06:55:57.410Z,4.00
2018-03-23T06:58:25.772Z,4.00
2018-03-23T07:00:54.820Z,4.00
2018-03-23T07:03:22.410Z,4.00
2018-03-23T07:05:50.025Z,4.10
2018-03-23T07:08:17.664Z,4.10
2018-03-23T07:10:46.011Z,4.30
2018-03-23T07:13:13.631Z,4.30
2018-03-23T07:15:41.295Z,4.20
2018-03-23T07:18:08.886Z,4.40
2018-03-23T07:20:36.489Z,4.30
2018-03-23T07:23:04.101Z,4.30
2018-03-23T07:25:31.867Z,4.30
2018-03-23T07:27:59.479Z,4.40
2018-03-23T07:30:27.802Z,4.30
2018-03-23T07:32:55.443Z,4.30
2018-03-23T07:35:23.038Z,4.20
2018-03-23T07:37:51.812Z,4.40
2018-03-23T07:40:20.284Z,4.40
2018-03-23T07:42:48.235Z,4.30
2018-03-23T07:45:15.828Z,4.40
2018-03-23T07:47:43.436Z,4.50
2018-03-23T07:50:11.062Z,4.70
2018-03-23T07:52:39.421Z,4.90
2018-03-23T07:55:07.838Z,5.10
2018-03-23T07:57:35.466Z,5.10
2018-03-23T08:00:03.123Z,5.30
2018-03-23T08:02:30.706Z,5.40
2018-03-23T08:04:59.117Z,5.60
2018-03-23T08:07:26.965Z,5.50
2018-03-23T08:09:54.578Z,5.40
2018-03-23T08:12:22.208Z,5.50
2018-03-23T08:14:50.239Z,5.40
2018-03-23T08:17:18.272Z,5.30
2018-03-23T08:19:45.865Z,5.50
2018-03-23T08:22:14.352Z,5.80
2018-03-23T08:24:44.234Z,5.80
2018-03-23T08:27:14.086Z,5.80
2018-03-23T08:29:41.845Z,5.90
2018-03-23T08:32:10.222Z,5.90
2018-03-23T08:34:41.825Z,5.80
2018-03-23T08:37:09.438Z,5.80
2018-03-23T08:39:37.058Z,5.80
2018-03-23T08:42:04.726Z,5.80
2018-03-23T08:44:33.112Z,5.80
2018-03-23T08:47:00.694Z,5.80
2018-03-23T08:49:29.116Z,5.70
2018-03-23T08:51:57.887Z,5.70
2018-03-23T08:54:25.536Z,5.80
2018-03-23T08:56:53.161Z,5.60
2018-03-23T08:59:20.803Z,5.70
2018-03-23T09:01:50.329Z,5.80
2018-03-23T09:04:17.960Z,5.70
2018-03-23T09:06:45.607Z,5.90
2018-03-23T09:09:13.417Z,6.00
2018-03-23T09:11:42.024Z,6.10
2018-03-23T09:14:09.663Z,6.10
2018-03-23T09:16:38.076Z,6.00
2018-03-23T09:19:05.663Z,5.90
2018-03-23T09:21:34.267Z,6.10
2018-03-23T09:24:03.562Z,6.10
2018-03-23T09:26:32.715Z,6.10
2018-03-23T09:29:00.360Z,6.00
2018-03-23T09:31:28.000Z,6.10
2018-03-23T09:33:56.361Z,6.20
2018-03-23T09:36:23.988Z,6.20
2018-03-23T09:38:54.188Z,6.30
2018-03-23T09:41:21.852Z,6.20
2018-03-23T09:43:50.114Z,6.20
2018-03-23T09:46:17.738Z,6.00
2018-03-23T09:48:45.352Z,6.00
2018-03-23T09:51:13.010Z,5.90
2018-03-23T09:53:40.629Z,5.90
2018-03-23T09:56:08.236Z,5.80
2018-03-23T09:58:35.856Z,5.80
2018-03-23T10:01:04.226Z,5.90
2018-03-23T10:03:32.201Z,5.90
2018-03-23T10:05:59.818Z,5.90
2018-03-23T10:08:27.471Z,6.00
2018-03-23T10:10:55.206Z,5.90
2018-03-23T10:13:23.665Z,6.00
2018-03-23T10:15:52.226Z,6.00
2018-03-23T10:18:20.010Z,6.00
2018-03-23T10:20:48.452Z,6.00
2018-03-23T10:23:16.083Z,6.00
2018-03-23T10:25:43.710Z,5.90
2018-03-23T10:28:12.071Z,6.00
2018-03-23T10:30:40.499Z,6.10
2018-03-23T10:33:08.326Z,6.10
2018-03-23T10:35:36.677Z,6.10
2018-03-23T10:38:04.283Z,6.10
2018-03-23T10:40:31.944Z,6.10
2018-03-23T10:43:00.331Z,6.30
2018-03-23T10:45:27.950Z,6.20
2018-03-23T10:47:55.547Z,6.30
2018-03-23T10:50:24.084Z,6.20
2018-03-23T10:52:51.710Z,6.10
2018-03-23T10:55:19.314Z,6.30
2018-03-23T10:57:47.723Z,6.50
2018-03-23T11:00:18.109Z,6.60
2018-03-23T11:02:52.424Z,6.70
2018-03-23T11:05:20.095Z,6.70
2018-03-23T11:07:47.784Z,6.80
2018-03-23T11:10:15.399Z,6.50
2018-03-23T11:12:43.027Z,6.40
2018-03-23T11:15:10.663Z,6.30
2018-03-23T11:17:39.010Z,6.10
2018-03-23T11:20:06.646Z,6.00
2018-03-23T11:22:34.309Z,6.00
2018-03-23T11:25:01.908Z,6.00
2018-03-23T11:27:30.346Z,6.40
2018-03-23T11:29:58.602Z,6.40
2018-03-23T11:32:26.212Z,6.60
2018-03-23T11:34:54.659Z,6.90
2018-03-23T11:37:22.340Z,6.90
2018-03-23T11:39:50.009Z,7.00
2018-03-23T11:42:17.648Z,7.10
2018-03-23T11:44:45.306Z,6.90
2018-03-23T11:47:12.927Z,7.00
2018-03-23T11:49:40.538Z,6.70
2018-03-23T11:52:08.266Z,6.60
2018-03-23T11:54:35.891Z,6.50
2018-03-23T11:57:04.384Z,6.40
2018-03-23T11:59:31.999Z,6.40
2018-03-23T12:01:59.682Z,6.40
2018-03-23T12:04:27.347Z,6.40
2018-03-23T12:06:54.943Z,6.30
2018-03-23T12:09:22.626Z,6.10
2018-03-23T12:11:50.220Z,6.10
2018-03-23T12:14:17.914Z,6.30
2018-03-23T12:16:45.507Z,6.30
2018-03-23T12:19:13.103Z,6.40
2018-03-23T12:21:40.754Z,6.60
2018-03-23T12:24:08.430Z,6.60
2018-03-23T12:26:36.827Z,7.20
2018-03-23T12:29:04.497Z,7.10
2018-03-23T12:31:32.138Z,7.20
2018-03-23T12:34:00.525Z,7.30
2018-03-23T12:36:29.430Z,7.40
2018-03-23T12:38:57.058Z,7.40
2018-03-23T12:41:24.696Z,7.60
2018-03-23T12:43:53.920Z,7.60
2018-03-23T12:46:22.323Z,7.50
2018-03-23T12:48:49.938Z,7.50
2018-03-23T12:51:17.528Z,7.40
2018-03-23T12:53:45.193Z,7.30
2018-03-23T12:56:13.645Z,7.40
2018-03-23T12:58:41.256Z,7.40
2018-03-23T13:01:09.027Z,7.60
2018-03-23T13:03:36.674Z,7.50
2018-03-23T13:06:04.342Z,7.30
2018-03-23T13:08:31.953Z,6.90
2018-03-23T13:10:59.613Z,6.80
2018-03-23T13:13:27.222Z,6.80
2018-03-23T13:15:54.876Z,6.90
2018-03-23T13:18:22.531Z,6.90
2018-03-23T13:20:50.142Z,6.90
2018-03-23T13:23:17.743Z,7.00
2018-03-23T13:25:45.373Z,7.10
2018-03-23T13:28:13.004Z,7.10
2018-03-23T13:30:40.626Z,7.00
2018-03-23T13:33:08.273Z,7.00
2018-03-23T13:35:36.634Z,7.20
2018-03-23T13:38:04.900Z,7.20
2018-03-23T13:40:32.634Z,7.30
2018-03-23T13:43:00.241Z,7.30
2018-03-23T13:45:28.623Z,7.50
2018-03-23T13:47:57.064Z,7.40
2018-03-23T13:50:24.664Z,7.40
2018-03-23T13:52:53.092Z,7.20
2018-03-23T13:55:20.727Z,7.20
2018-03-23T13:57:48.346Z,7.20
2018-03-23T14:00:21.766Z,7.10
2018-03-23T14:02:50.161Z,7.10
2018-03-23T14:05:17.799Z,7.10
2018-03-23T14:07:46.167Z,6.80
2018-03-23T14:10:14.557Z,6.70
2018-03-23T14:12:42.224Z,6.60
2018-03-23T14:15:10.599Z,6.60
2018-03-23T14:17:39.020Z,6.50
2018-03-23T14:20:06.638Z,6.50
2018-03-23T14:22:34.997Z,6.50
2018-03-23T14:25:02.625Z,6.40
2018-03-23T14:27:30.274Z,6.40
2018-03-23T14:29:57.880Z,6.40
2018-03-23T14:32:26.419Z,6.10
2018-03-23T14:34:54.093Z,6.10
2018-03-23T14:37:21.750Z,6.10
2018-03-23T14:39:49.371Z,6.10
2018-03-23T14:42:16.965Z,6.00
2018-03-23T14:44:44.629Z,6.00
2018-03-23T14:47:12.229Z,6.10
2018-03-23T14:49:40.595Z,6.10
2018-03-23T14:52:08.943Z,6.00
2018-03-23T14:54:36.544Z,6.00
2018-03-23T14:57:05.077Z,5.90
2018-03-23T14:59:35.251Z,5.90
2018-03-23T15:02:03.621Z,5.80
2018-03-23T15:04:31.987Z,5.80
2018-03-23T15:06:59.657Z,5.90
2018-03-23T15:09:28.063Z,6.10
2018-03-23T15:11:56.293Z,6.00
2018-03-23T15:14:23.920Z,6.20
2018-03-23T15:16:51.587Z,6.20
2018-03-23T15:19:19.179Z,6.20
2018-03-23T15:21:46.839Z,6.20
2018-03-23T15:24:14.461Z,6.10
2018-03-23T15:26:42.090Z,6.00
2018-03-23T15:29:09.709Z,5.90
2018-03-23T15:31:37.411Z,5.80
2018-03-23T15:34:05.067Z,5.80
2018-03-23T15:36:33.442Z,5.90
2018-03-23T15:39:01.893Z,5.90
2018-03-23T15:41:29.638Z,5.90
2018-03-23T15:43:57.262Z,6.00
2018-03-23T15:46:24.902Z,6.00
2018-03-23T15:48:53.307Z,6.00
2018-03-23T15:51:20.992Z,6.00
2018-03-23T15:53:48.620Z,6.00
2018-03-23T15:56:16.405Z,6.00
2018-03-23T15:58:44.022Z,6.00
2018-03-23T16:01:12.424Z,5.90
2018-03-23T16:03:40.064Z,5.90
2018-03-23T16:06:08.437Z,5.80
2018-03-23T16:08:36.845Z,5.80
2018-03-23T16:11:04.483Z,5.80
2018-03-23T16:13:32.861Z,5.70
2018-03-23T16:16:01.370Z,5.60
2018-03-23T16:18:29.147Z,5.60
2018-03-23T16:20:56.797Z,5.60
2018-03-23T16:23:24.532Z,5.50
2018-03-23T16:25:53.522Z,5.40
2018-03-23T16:28:21.896Z,5.40
2018-03-23T16:30:50.484Z,5.30
2018-03-23T16:33:18.842Z,5.30
2018-03-23T16:35:46.460Z,5.30
2018-03-23T16:38:14.121Z,5.20
2018-03-23T16:40:41.815Z,5.10
2018-03-23T16:43:09.444Z,5.10
2018-03-23T16:45:37.145Z,5.10
2018-03-23T16:48:04.738Z,5.10
2018-03-23T16:50:32.447Z,5.00
2018-03-23T16:53:00.053Z,5.00
2018-03-23T16:55:28.501Z,4.90
2018-03-23T16:57:56.106Z,4.90
2018-03-23T17:00:23.713Z,4.90
2018-03-23T17:02:51.338Z,4.90
2018-03-23T17:05:18.983Z,4.90
2018-03-23T17:07:46.648Z,4.90
2018-03-23T17:10:14.285Z,4.90
2018-03-23T17:12:42.735Z,4.80
2018-03-23T17:15:10.348Z,4.80
2018-03-23T17:17:37.980Z,4.80
2018-03-23T17:20:06.393Z,4.70
2018-03-23T17:22:34.359Z,4.70
2018-03-23T17:25:01.951Z,4.70
2018-03-23T17:27:29.576Z,4.70
2018-03-23T17:29:57.167Z,4.80
2018-03-23T17:32:24.814Z,4.70
2018-03-23T17:34:52.398Z,4.70
2018-03-23T17:37:20.054Z,4.70
2018-03-23T17:39:47.714Z,4.70
2018-03-23T17:42:15.349Z,4.60
2018-03-23T17:44:42.946Z,4.50
2018-03-23T17:47:10.650Z,4.50
2018-03-23T17:49:38.244Z,4.50
2018-03-23T17:52:05.832Z,4.50
2018-03-23T17:54:33.482Z,4.40
2018-03-23T17:57:01.100Z,4.40
2018-03-23T17:59:28.746Z,4.30
2018-03-23T18:01:57.199Z,4.30
2018-03-23T18:04:25.898Z,4.30
2018-03-23T18:06:54.410Z,4.30
2018-03-23T18:09:22.009Z,4.30
2018-03-23T18:11:49.705Z,4.30
2018-03-23T18:14:18.184Z,4.40
2018-03-23T18:16:46.568Z,4.30
2018-03-23T18:19:14.994Z,4.30
2018-03-23T18:21:42.871Z,4.20
2018-03-23T18:24:10.471Z,4.20
2018-03-23T18:26:38.873Z,4.20
2018-03-23T18:29:06.595Z,4.20
2018-03-23T18:31:34.196Z,4.20
2018-03-23T18:34:01.795Z,4.10
2018-03-23T18:36:29.418Z,4.20
2018-03-23T18:38:57.014Z,4.20
2018-03-23T18:41:24.641Z,4.20
2018-03-23T18:43:52.262Z,4.30
2018-03-23T18:46:20.656Z,4.20
2018-03-23T18:48:48.296Z,4.20
2018-03-23T18:51:16.649Z,4.20
2018-03-23T18:53:44.245Z,4.10
2018-03-23T18:56:12.632Z,4.20
2018-03-23T18:58:40.247Z,4.20
2018-03-23T19:01:08.006Z,4.20
2018-03-23T19:03:35.659Z,4.20
2018-03-23T19:06:03.340Z,4.10
2018-03-23T19:08:31.656Z,4.10
2018-03-23T19:10:59.297Z,4.10
2018-03-23T19:13:27.682Z,4.10
2018-03-23T19:15:56.114Z,4.10
2018-03-23T19:18:23.722Z,4.10
2018-03-23T19:20:52.121Z,4.00
2018-03-23T19:23:19.766Z,4.00
2018-03-23T19:25:48.139Z,4.00
2018-03-23T19:28:16.550Z,4.00
2018-03-23T19:30:44.199Z,4.00
2018-03-23T19:33:12.747Z,4.00
2018-03-23T19:35:41.228Z,4.00
2018-03-23T19:38:09.707Z,4.10
2018-03-23T19:40:38.089Z,4.10
2018-03-23T19:43:06.540Z,4.10
2018-03-23T19:45:34.158Z,4.10
2018-03-23T19:48:01.788Z,4.10
2018-03-23T19:50:30.235Z,4.10
2018-03-23T19:52:57.841Z,4.10
2018-03-23T19:55:26.423Z,4.00
2018-03-23T19:57:54.930Z,4.00
2018-03-23T20:00:22.536Z,4.00
2018-03-23T20:02:50.972Z,4.00
2018-03-23T20:05:19.388Z,3.90
2018-03-23T20:07:48.445Z,4.00
2018-03-23T20:10:16.008Z,4.00
2018-03-23T20:12:43.705Z,3.90
2018-03-23T20:15:11.319Z,3.90
2018-03-23T20:20:51.010Z,4.00
2018-03-23T20:23:19.436Z,3.90
2018-03-23T20:25:47.140Z,3.90
2018-03-23T20:28:21.145Z,3.90
2018-03-23T20:30:48.822Z,3.80
2018-03-23T20:33:16.446Z,3.80
2018-03-23T20:35:44.939Z,3.70
2018-03-23T20:38:12.662Z,3.70
2018-03-23T20:40:41.060Z,3.70
2018-03-23T20:43:09.151Z,3.70
2018-03-23T20:45:36.820Z,3.70
2018-03-23T20:48:04.456Z,3.80
2018-03-23T20:50:32.053Z,3.80
2018-03-23T20:52:59.717Z,3.80
2018-03-23T20:55:27.339Z,3.70
2018-03-23T20:57:54.937Z,3.80
2018-03-23T21:00:22.594Z,3.80
2018-03-23T21:02:50.282Z,3.80
2018-03-23T21:05:19.540Z,3.70
2018-03-23T21:07:47.188Z,3.70
2018-03-23T21:10:14.780Z,3.60
2018-03-23T21:12:42.436Z,3.60
2018-03-23T21:15:10.073Z,3.60
2018-03-23T21:17:37.762Z,3.60
2018-03-23T21:20:05.404Z,3.50
2018-03-23T21:22:33.059Z,3.50
2018-03-23T21:25:00.668Z,3.50
2018-03-23T21:27:29.103Z,3.50
2018-03-23T21:29:57.526Z,3.50
2018-03-23T21:32:25.148Z,3.50
2018-03-23T21:34:52.737Z,3.50
2018-03-23T21:37:20.363Z,3.40
2018-03-23T21:39:48.056Z,3.50
2018-03-23T21:42:15.686Z,3.50
2018-03-23T21:44:43.376Z,3.50
2018-03-23T21:47:11.055Z,3.40
2018-03-23T21:49:39.439Z,3.50
2018-03-23T21:52:07.913Z,3.50
2018-03-23T21:54:35.615Z,3.50
2018-03-23T21:57:03.230Z,3.50
2018-03-23T21:59:31.678Z,3.40
2018-03-23T22:01:59.353Z,3.40
2018-03-23T22:04:27.010Z,3.40
2018-03-23T22:06:54.684Z,3.40
2018-03-23T22:09:23.093Z,3.40
2018-03-23T22:11:51.451Z,3.40
2018-03-23T22:14:19.043Z,3.30
2018-03-23T22:16:46.687Z,3.30
2018-03-23T22:19:15.056Z,3.30
2018-03-23T22:21:43.456Z,3.30
2018-03-23T22:24:11.074Z,3.30
2018-03-23T22:26:38.712Z,3.30
2018-03-23T22:29:06.374Z,3.30
2018-03-23T22:31:34.419Z,3.30
2018-03-23T22:34:02.059Z,3.30
2018-03-23T22:36:30.414Z,3.40
2018-03-23T22:38:58.043Z,3.30
2018-03-23T22:41:26.258Z,3.40
2018-03-23T22:43:53.943Z,3.40
2018-03-23T22:46:21.559Z,3.40
2018-03-23T22:48:49.152Z,3.40
2018-03-23T22:51:17.545Z,3.50
2018-03-23T22:53:45.172Z,3.50
2018-03-23T22:56:18.735Z,3.40
2018-03-23T22:58:46.467Z,3.40
2018-03-23T23:01:14.137Z,3.50
2018-03-23T23:03:41.886Z,3.40
2018-03-23T23:06:10.215Z,3.40
2018-03-23T23:08:37.903Z,3.40
2018-03-23T23:11:05.616Z,3.40
2018-03-23T23:13:33.249Z,3.40
2018-03-23T23:16:00.889Z,3.30
2018-03-23T23:18:29.259Z,3.30
2018-03-23T23:20:57.655Z,3.30
2018-03-23T23:23:26.886Z,3.30
2018-03-23T23:25:54.536Z,3.30
2018-03-23T23:28:22.269Z,3.30
2018-03-23T23:30:50.638Z,3.30
2018-03-23T23:33:19.016Z,3.30
2018-03-23T23:35:47.430Z,3.30
2018-03-23T23:38:15.043Z,3.20
2018-03-23T23:40:42.634Z,3.30
2018-03-23T23:43:10.266Z,3.20
2018-03-23T23:45:37.915Z,3.30
2018-03-23T23:48:05.609Z,3.30
2018-03-23T23:50:34.015Z,3.20
2018-03-23T23:53:01.684Z,3.20
2018-03-23T23:55:29.297Z,3.20
2018-03-23T23:57:57.077Z,3.20
